createdAt,value
2017-07-11T00:00:50.170Z,0
2017-07-11T00:01:59.025Z,0
2017-07-11T00:03:07.882Z,0
2017-07-11T00:04:16.741Z,0
2017-07-11T00:05:25.597Z,0
2017-07-11T00:06:34.705Z,0
2017-07-11T00:07:43.562Z,0
2017-07-11T00:08:52.414Z,0
2017-07-11T00:10:01.270Z,0
2017-07-11T00:11:10.462Z,0
2017-07-11T00:12:19.515Z,0
2017-07-11T00:13:28.373Z,0
2017-07-11T00:14:37.231Z,0
2017-07-11T00:15:46.084Z,0
2017-07-11T00:16:54.943Z,0
2017-07-11T00:18:03.949Z,0
2017-07-11T00:19:12.807Z,0
2017-07-11T00:20:21.663Z,0
2017-07-11T00:21:30.520Z,0
2017-07-11T00:22:39.376Z,0
2017-07-11T00:23:48.232Z,0
2017-07-11T00:24:57.087Z,0
2017-07-11T00:26:05.939Z,0
2017-07-11T00:27:15.132Z,0
2017-07-11T00:28:23.988Z,0
2017-07-11T00:29:32.994Z,0
2017-07-11T00:30:41.848Z,0
2017-07-11T00:31:50.704Z,0
2017-07-11T00:32:59.560Z,0
2017-07-11T00:34:08.416Z,0
2017-07-11T00:35:17.426Z,0
2017-07-11T00:36:26.285Z,0
2017-07-11T00:37:35.140Z,0
2017-07-11T00:38:43.993Z,0
2017-07-11T00:39:52.851Z,0
2017-07-11T00:41:01.809Z,0
2017-07-11T00:42:10.665Z,0
2017-07-11T00:43:19.523Z,0
2017-07-11T00:44:28.379Z,0
2017-07-11T00:45:37.240Z,0
2017-07-11T00:46:46.497Z,0
2017-07-11T00:47:55.355Z,0
2017-07-11T00:49:04.213Z,0
2017-07-11T00:50:13.070Z,0
2017-07-11T00:51:21.926Z,0
2017-07-11T00:52:30.931Z,0
2017-07-11T00:53:39.788Z,0
2017-07-11T00:54:48.644Z,0
2017-07-11T00:55:57.500Z,0
2017-07-11T00:57:06.356Z,0
2017-07-11T00:58:15.464Z,0
2017-07-11T00:59:24.320Z,0
2017-07-11T01:00:33.178Z,0
2017-07-11T01:01:42.036Z,0
2017-07-11T01:02:50.893Z,0
2017-07-11T01:04:00.000Z,0
2017-07-11T01:05:08.857Z,0
2017-07-11T01:06:17.714Z,0
2017-07-11T01:07:26.572Z,0
2017-07-11T01:08:35.426Z,0
2017-07-11T01:09:44.279Z,0
2017-07-11T01:10:53.137Z,0
2017-07-11T01:12:01.993Z,0
2017-07-11T01:13:10.848Z,0
2017-07-11T01:14:19.704Z,0
2017-07-11T01:15:28.811Z,0
2017-07-11T01:16:37.669Z,0
2017-07-11T01:17:46.526Z,0
2017-07-11T01:18:55.382Z,0
2017-07-11T01:20:04.237Z,0
2017-07-11T01:21:13.244Z,0
2017-07-11T01:22:22.102Z,0
2017-07-11T01:23:30.957Z,0
2017-07-11T01:24:39.840Z,0
2017-07-11T01:25:48.671Z,0
2017-07-11T01:26:57.578Z,0
2017-07-11T01:28:06.431Z,0
2017-07-11T01:29:15.289Z,0
2017-07-11T01:30:24.144Z,0
2017-07-11T01:31:33.037Z,0
2017-07-11T01:32:41.859Z,0
2017-07-11T01:33:50.715Z,0
2017-07-11T01:35:00.241Z,0
2017-07-11T01:36:09.097Z,0
2017-07-11T01:37:17.959Z,0
2017-07-11T01:38:26.912Z,0
2017-07-11T01:39:36.102Z,0
2017-07-11T01:40:44.957Z,0
2017-07-11T01:41:53.815Z,0
2017-07-11T01:43:02.675Z,0
2017-07-11T01:44:11.578Z,0
2017-07-11T01:45:20.436Z,0
2017-07-11T01:46:29.293Z,0
2017-07-11T01:47:38.148Z,0
2017-07-11T01:48:47.006Z,0
2017-07-11T01:49:56.064Z,0
2017-07-11T01:51:04.919Z,0
2017-07-11T01:52:13.777Z,0
2017-07-11T01:53:22.635Z,0
2017-07-11T01:54:31.491Z,0
2017-07-11T01:55:40.399Z,0
2017-07-11T01:56:49.254Z,0
2017-07-11T01:57:58.109Z,0
2017-07-11T01:59:06.965Z,0
2017-07-11T02:00:15.819Z,0
2017-07-11T02:01:24.979Z,0
2017-07-11T02:02:33.831Z,0
2017-07-11T02:03:42.688Z,0
2017-07-11T02:04:51.547Z,0
2017-07-11T02:06:00.400Z,0
2017-07-11T02:07:09.656Z,0
2017-07-11T02:08:18.512Z,0
2017-07-11T02:09:27.370Z,0
2017-07-11T02:10:36.225Z,0
2017-07-11T02:11:45.083Z,0
2017-07-11T02:12:54.090Z,0
2017-07-11T02:14:02.943Z,0
2017-07-11T02:15:11.800Z,0
2017-07-11T02:16:20.655Z,0
2017-07-11T02:17:29.511Z,0
2017-07-11T02:18:38.770Z,0
2017-07-11T02:19:47.626Z,0
2017-07-11T02:20:56.818Z,0
2017-07-11T02:22:05.673Z,0
2017-07-11T02:23:14.528Z,0
2017-07-11T02:24:23.636Z,0
2017-07-11T02:25:32.495Z,0
2017-07-11T02:26:41.351Z,0
2017-07-11T02:27:50.205Z,0
2017-07-11T02:28:59.059Z,0
2017-07-11T02:30:07.914Z,0
2017-07-11T02:31:16.769Z,0
2017-07-11T02:32:25.626Z,0
2017-07-11T02:33:34.482Z,0
2017-07-11T02:34:43.337Z,0
2017-07-11T02:35:52.393Z,0
2017-07-11T02:37:01.246Z,0
2017-07-11T02:38:10.156Z,0
2017-07-11T02:39:18.958Z,0
2017-07-11T02:40:27.814Z,4
2017-07-11T02:41:37.152Z,4
2017-07-11T02:42:46.005Z,4
2017-07-11T02:43:54.862Z,4
2017-07-11T02:45:03.719Z,0
2017-07-11T02:46:12.575Z,0
2017-07-11T02:47:21.580Z,0
2017-07-11T02:48:30.437Z,4
2017-07-11T02:49:39.293Z,4
2017-07-11T02:50:48.496Z,4
2017-07-11T02:51:57.351Z,4
2017-07-11T02:53:06.257Z,8
2017-07-11T02:54:15.114Z,4
2017-07-11T02:55:24.309Z,8
2017-07-11T02:56:33.165Z,4
2017-07-11T02:57:42.023Z,8
2017-07-11T02:58:51.030Z,8
2017-07-11T02:59:59.883Z,8
2017-07-11T03:01:08.740Z,8
2017-07-11T03:02:17.597Z,8
2017-07-11T03:03:26.455Z,12
2017-07-11T03:04:35.560Z,8
2017-07-11T03:05:44.414Z,8
2017-07-11T03:06:53.271Z,16
2017-07-11T03:08:02.127Z,16
2017-07-11T03:09:10.985Z,16
2017-07-11T03:10:19.843Z,20
2017-07-11T03:11:28.698Z,20
2017-07-11T03:12:37.555Z,20
2017-07-11T03:13:46.411Z,20
2017-07-11T03:14:55.266Z,20
2017-07-11T03:16:04.173Z,20
2017-07-11T03:17:13.029Z,20
2017-07-11T03:18:21.886Z,24
2017-07-11T03:19:30.744Z,24
2017-07-11T03:20:39.598Z,20
2017-07-11T03:21:48.605Z,24
2017-07-11T03:22:57.460Z,28
2017-07-11T03:24:06.317Z,28
2017-07-11T03:25:15.561Z,28
2017-07-11T03:26:24.363Z,32
2017-07-11T03:27:33.269Z,40
2017-07-11T03:28:42.127Z,36
2017-07-11T03:29:50.983Z,44
2017-07-11T03:30:59.843Z,56
2017-07-11T03:32:08.702Z,68
2017-07-11T03:33:17.703Z,76
2017-07-11T03:34:26.561Z,88
2017-07-11T03:35:35.417Z,88
2017-07-11T03:36:44.274Z,80
2017-07-11T03:37:53.132Z,80
2017-07-11T03:39:02.387Z,72
2017-07-11T03:40:11.243Z,76
2017-07-11T03:41:20.104Z,76
2017-07-11T03:42:28.956Z,84
2017-07-11T03:43:37.813Z,92
2017-07-11T03:44:46.819Z,96
2017-07-11T03:45:55.681Z,92
2017-07-11T03:47:04.536Z,108
2017-07-11T03:48:13.726Z,128
2017-07-11T03:49:22.584Z,128
2017-07-11T03:50:31.492Z,120
2017-07-11T03:51:40.346Z,132
2017-07-11T03:52:49.543Z,152
2017-07-11T03:53:58.400Z,160
2017-07-11T03:55:07.257Z,160
2017-07-11T03:56:16.263Z,152
2017-07-11T03:57:25.120Z,148
2017-07-11T03:58:33.976Z,144
2017-07-11T03:59:42.832Z,160
2017-07-11T04:00:51.689Z,168
2017-07-11T04:02:00.695Z,176
2017-07-11T04:03:09.554Z,188
2017-07-11T04:04:18.412Z,208
2017-07-11T04:05:27.268Z,228
2017-07-11T04:06:36.122Z,252
2017-07-11T04:07:45.028Z,288
2017-07-11T04:08:53.885Z,324
2017-07-11T04:10:02.744Z,352
2017-07-11T04:11:11.598Z,372
2017-07-11T04:12:20.487Z,400
2017-07-11T04:13:29.512Z,404
2017-07-11T04:14:38.370Z,404
2017-07-11T04:15:47.226Z,396
2017-07-11T04:16:56.416Z,368
2017-07-11T04:18:05.274Z,320
2017-07-11T04:19:14.179Z,304
2017-07-11T04:20:23.034Z,316
2017-07-11T04:21:31.899Z,340
2017-07-11T04:22:40.755Z,392
2017-07-11T04:23:49.613Z,424
2017-07-11T04:24:58.622Z,452
2017-07-11T04:26:07.477Z,440
2017-07-11T04:27:16.332Z,444
2017-07-11T04:28:25.187Z,508
2017-07-11T04:29:34.041Z,612
2017-07-11T04:30:42.998Z,664
2017-07-11T04:31:51.855Z,664
2017-07-11T04:33:00.712Z,692
2017-07-11T04:34:09.570Z,676
2017-07-11T04:35:18.426Z,628
2017-07-11T04:36:27.331Z,552
2017-07-11T04:37:36.190Z,532
2017-07-11T04:38:45.044Z,544
2017-07-11T04:39:53.901Z,532
2017-07-11T04:41:02.757Z,528
2017-07-11T04:42:11.864Z,584
2017-07-11T04:43:20.728Z,532
2017-07-11T04:44:29.576Z,476
2017-07-11T04:45:38.435Z,412
2017-07-11T04:46:47.290Z,328
2017-07-11T04:47:56.247Z,264
2017-07-11T04:49:05.106Z,204
2017-07-11T04:50:14.296Z,156
2017-07-11T04:51:23.153Z,160
2017-07-11T04:52:32.011Z,172
2017-07-11T04:53:41.068Z,184
2017-07-11T04:54:49.926Z,216
2017-07-11T04:55:58.783Z,268
2017-07-11T04:57:07.640Z,284
2017-07-11T04:58:16.497Z,272
2017-07-11T04:59:25.501Z,320
2017-07-11T05:00:34.360Z,388
2017-07-11T05:01:43.217Z,396
2017-07-11T05:02:52.080Z,404
2017-07-11T05:04:00.933Z,420
2017-07-11T05:05:09.939Z,456
2017-07-11T05:06:18.797Z,504
2017-07-11T05:07:27.651Z,532
2017-07-11T05:08:36.507Z,548
2017-07-11T05:09:45.363Z,620
2017-07-11T05:10:54.320Z,656
2017-07-11T05:12:03.174Z,536
2017-07-11T05:13:12.035Z,476
2017-07-11T05:14:20.892Z,524
2017-07-11T05:15:29.749Z,640
2017-07-11T05:16:38.607Z,656
2017-07-11T05:17:47.463Z,788
2017-07-11T05:18:56.321Z,920
2017-07-11T05:20:05.176Z,1104
2017-07-11T05:21:14.031Z,1044
2017-07-11T05:22:22.938Z,944
2017-07-11T05:23:31.792Z,992
2017-07-11T05:24:40.983Z,1000
2017-07-11T05:25:49.837Z,1156
2017-07-11T05:26:58.698Z,1336
2017-07-11T05:28:07.858Z,1368
2017-07-11T05:29:16.714Z,1272
2017-07-11T05:30:25.568Z,1244
2017-07-11T05:31:34.428Z,1444
2017-07-11T05:32:43.283Z,1700
2017-07-11T05:33:52.391Z,1716
2017-07-11T05:35:01.587Z,1744
2017-07-11T05:36:10.444Z,1740
2017-07-11T05:37:19.301Z,1732
2017-07-11T05:38:28.158Z,1848
2017-07-11T05:39:37.065Z,1908
2017-07-11T05:40:45.923Z,1960
2017-07-11T05:41:54.779Z,2028
2017-07-11T05:43:03.634Z,2128
2017-07-11T05:44:12.491Z,2196
2017-07-11T05:45:21.447Z,2196
2017-07-11T05:46:30.305Z,2268
2017-07-11T05:47:39.160Z,2412
2017-07-11T05:48:48.017Z,2456
2017-07-11T05:49:56.873Z,2420
2017-07-11T05:51:05.734Z,2360
2017-07-11T05:52:14.591Z,2380
2017-07-11T05:53:23.448Z,2428
2017-07-11T05:54:32.305Z,2404
2017-07-11T05:55:41.165Z,2516
2017-07-11T05:56:50.174Z,2568
2017-07-11T05:57:59.032Z,2604
2017-07-11T05:59:07.891Z,2684
2017-07-11T06:00:16.748Z,2780
2017-07-11T06:01:25.606Z,2700
2017-07-11T06:02:34.564Z,2604
2017-07-11T06:03:43.422Z,2576
2017-07-11T06:04:52.283Z,2544
2017-07-11T06:06:01.139Z,2484
2017-07-11T06:07:09.998Z,2616
2017-07-11T06:08:19.055Z,2876
2017-07-11T06:09:27.915Z,2892
2017-07-11T06:10:36.771Z,2828
2017-07-11T06:11:45.629Z,2876
2017-07-11T06:12:54.487Z,2928
2017-07-11T06:14:03.545Z,2956
2017-07-11T06:15:12.403Z,2852
2017-07-11T06:16:21.261Z,2804
2017-07-11T06:17:30.119Z,2960
2017-07-11T06:18:38.978Z,3064
2017-07-11T06:19:48.170Z,3236
2017-07-11T06:20:57.024Z,3364
2017-07-11T06:22:05.883Z,3440
2017-07-11T06:23:14.742Z,3392
2017-07-11T06:24:23.602Z,3400
2017-07-11T06:25:32.617Z,3328
2017-07-11T06:26:41.430Z,3152
2017-07-11T06:27:50.289Z,2856
2017-07-11T06:28:59.145Z,2832
2017-07-11T06:30:08.024Z,2776
2017-07-11T06:31:16.884Z,2660
2017-07-11T06:32:26.410Z,2580
2017-07-11T06:33:35.263Z,2320
2017-07-11T06:34:44.123Z,2820
2017-07-11T06:35:52.981Z,3196
2017-07-11T06:37:02.090Z,3480
2017-07-11T06:38:10.949Z,3124
2017-07-11T06:39:19.805Z,2524
2017-07-11T06:40:28.662Z,2048
2017-07-11T06:41:37.854Z,2592
2017-07-11T06:42:46.912Z,3164
2017-07-11T06:43:55.770Z,2920
2017-07-11T06:45:04.629Z,3264
2017-07-11T06:46:13.485Z,2856
2017-07-11T06:47:22.344Z,3228
2017-07-11T06:48:31.453Z,3360
2017-07-11T06:49:40.310Z,2956
2017-07-11T06:50:49.169Z,2516
2017-07-11T06:51:58.024Z,2076
2017-07-11T06:53:06.884Z,2016
2017-07-11T06:54:15.892Z,2028
2017-07-11T06:55:24.750Z,2388
2017-07-11T06:56:33.610Z,2316
2017-07-11T06:57:42.468Z,2508
2017-07-11T06:58:51.328Z,2288
2017-07-11T07:00:00.436Z,2744
2017-07-11T07:01:09.292Z,2604
2017-07-11T07:02:18.151Z,2184
2017-07-11T07:03:27.009Z,2456
2017-07-11T07:04:35.869Z,2012
2017-07-11T07:05:44.828Z,2100
2017-07-11T07:06:53.687Z,2616
2017-07-11T07:08:02.544Z,2152
2017-07-11T07:09:11.403Z,2512
2017-07-11T07:10:20.260Z,2132
2017-07-11T07:11:29.218Z,2256
2017-07-11T07:12:38.409Z,2240
2017-07-11T07:13:47.267Z,2756
2017-07-11T07:14:56.125Z,3520
2017-07-11T07:16:04.984Z,4036
2017-07-11T07:17:13.990Z,4384
2017-07-11T07:18:22.849Z,4812
2017-07-11T07:19:31.708Z,4484
2017-07-11T07:20:40.570Z,4592
2017-07-11T07:21:49.425Z,4520
2017-07-11T07:22:58.431Z,4696
2017-07-11T07:24:07.293Z,4880
2017-07-11T07:25:16.485Z,3532
2017-07-11T07:26:25.346Z,2700
2017-07-11T07:27:34.204Z,3232
2017-07-11T07:28:43.364Z,2436
2017-07-11T07:29:52.224Z,1976
2017-07-11T07:31:01.088Z,1712
2017-07-11T07:32:09.942Z,2112
2017-07-11T07:33:18.805Z,3036
2017-07-11T07:34:28.146Z,3560
2017-07-11T07:35:37.003Z,3832
2017-07-11T07:36:45.860Z,4568
2017-07-11T07:37:55.055Z,4656
2017-07-11T07:39:03.914Z,4392
2017-07-11T07:40:12.925Z,4068
2017-07-11T07:41:21.784Z,3772
2017-07-11T07:42:30.641Z,3936
2017-07-11T07:43:39.849Z,4108
2017-07-11T07:44:49.037Z,4116
2017-07-11T07:45:58.046Z,4324
2017-07-11T07:47:06.906Z,4156
2017-07-11T07:48:15.765Z,4512
2017-07-11T07:49:24.622Z,4672
2017-07-11T07:50:33.483Z,4596
2017-07-11T07:51:42.391Z,4604
2017-07-11T07:52:51.247Z,5096
2017-07-11T07:54:00.108Z,4152
2017-07-11T07:55:08.973Z,4236
2017-07-11T07:56:17.831Z,4736
2017-07-11T07:57:26.845Z,5084
2017-07-11T07:58:35.706Z,5488
2017-07-11T07:59:44.566Z,5508
2017-07-11T08:00:53.427Z,5276
2017-07-11T08:02:02.284Z,4396
2017-07-11T08:03:11.297Z,3504
2017-07-11T08:04:20.159Z,3508
2017-07-11T08:05:29.019Z,4088
2017-07-11T08:06:37.882Z,4044
2017-07-11T08:07:46.741Z,3988
2017-07-11T08:08:55.749Z,4840
2017-07-11T08:10:04.610Z,5200
2017-07-11T08:11:13.470Z,6576
2017-07-11T08:12:22.332Z,6272
2017-07-11T08:13:31.194Z,6340
2017-07-11T08:14:40.269Z,6916
2017-07-11T08:15:49.129Z,8048
2017-07-11T08:16:57.994Z,5668
2017-07-11T08:18:06.853Z,3880
2017-07-11T08:19:15.715Z,4508
2017-07-11T08:20:24.928Z,4036
2017-07-11T08:21:33.788Z,4172
2017-07-11T08:22:42.645Z,4364
2017-07-11T08:23:51.507Z,4128
2017-07-11T08:25:00.365Z,4292
2017-07-11T08:26:09.378Z,6308
2017-07-11T08:27:18.236Z,7440
2017-07-11T08:28:27.095Z,6752
2017-07-11T08:29:35.953Z,5352
2017-07-11T08:30:44.814Z,4496
2017-07-11T08:31:54.081Z,3988
2017-07-11T08:33:02.939Z,3400
2017-07-11T08:34:11.797Z,2892
2017-07-11T08:35:20.660Z,2680
2017-07-11T08:36:29.519Z,3388
2017-07-11T08:37:38.633Z,5204
2017-07-11T08:38:47.493Z,3064
2017-07-11T08:39:56.352Z,2904
2017-07-11T08:41:05.215Z,3844
2017-07-11T08:42:14.073Z,6436
2017-07-11T08:43:23.034Z,7856
2017-07-11T08:44:31.895Z,7688
2017-07-11T08:45:40.755Z,5048
2017-07-11T08:46:49.616Z,4452
2017-07-11T08:47:58.479Z,5680
2017-07-11T08:49:07.489Z,6068
2017-07-11T08:50:16.352Z,6112
2017-07-11T08:51:25.213Z,4620
2017-07-11T08:52:34.073Z,5904
2017-07-11T08:53:42.934Z,7972
2017-07-11T08:54:51.798Z,6656
2017-07-11T08:56:00.657Z,5268
2017-07-11T08:57:09.521Z,6032
2017-07-11T08:58:18.382Z,5988
2017-07-11T08:59:27.241Z,6736
2017-07-11T09:00:36.153Z,6432
2017-07-11T09:01:45.017Z,6900
2017-07-11T09:02:53.878Z,4048
2017-07-11T09:04:02.742Z,3104
2017-07-11T09:05:11.622Z,4360
2017-07-11T09:06:20.533Z,5180
2017-07-11T09:07:29.393Z,4632
2017-07-11T09:08:38.257Z,4568
2017-07-11T09:09:47.451Z,4236
2017-07-11T09:10:56.313Z,4392
2017-07-11T09:12:05.758Z,5696
2017-07-11T09:13:14.617Z,6448
2017-07-11T09:14:23.483Z,6616
2017-07-11T09:15:32.338Z,6344
2017-07-11T09:16:41.197Z,5576
2017-07-11T09:17:50.207Z,6100
2017-07-11T09:18:59.070Z,6316
2017-07-11T09:20:07.932Z,8172
2017-07-11T09:21:16.791Z,8256
2017-07-11T09:22:25.652Z,8908
2017-07-11T09:23:34.764Z,7328
2017-07-11T09:24:43.627Z,6176
2017-07-11T09:25:52.488Z,5584
2017-07-11T09:27:01.346Z,4304
2017-07-11T09:28:10.208Z,5484
2017-07-11T09:29:19.067Z,5920
2017-07-11T09:30:27.930Z,6288
2017-07-11T09:31:36.794Z,6712
2017-07-11T09:32:45.652Z,6664
2017-07-11T09:33:54.512Z,5052
2017-07-11T09:35:03.523Z,3712
2017-07-11T09:36:12.384Z,3708
2017-07-11T09:37:21.240Z,3656
2017-07-11T09:38:30.101Z,3436
2017-07-11T09:39:38.963Z,3780
2017-07-11T09:40:48.075Z,3464
2017-07-11T09:41:56.933Z,5208
2017-07-11T09:43:05.793Z,3824
2017-07-11T09:44:14.651Z,4264
2017-07-11T09:45:23.519Z,7156
2017-07-11T09:46:32.673Z,7224
2017-07-11T09:47:41.533Z,7180
2017-07-11T09:48:50.391Z,7032
2017-07-11T09:49:59.253Z,5436
2017-07-11T09:51:08.114Z,4664
2017-07-11T09:52:16.975Z,5672
2017-07-11T09:53:25.835Z,5964
2017-07-11T09:54:34.695Z,5496
2017-07-11T09:55:43.556Z,5640
2017-07-11T09:56:52.412Z,6848
2017-07-11T09:58:01.523Z,5192
2017-07-11T09:59:10.382Z,3032
2017-07-11T10:00:19.243Z,3428
2017-07-11T10:01:28.104Z,4724
2017-07-11T10:02:36.965Z,7256
2017-07-11T10:03:45.876Z,7628
2017-07-11T10:04:54.736Z,7708
2017-07-11T10:06:03.598Z,8364
2017-07-11T10:07:12.458Z,5640
2017-07-11T10:08:21.321Z,5724
2017-07-11T10:09:30.434Z,4940
2017-07-11T10:10:39.295Z,4360
2017-07-11T10:11:48.156Z,6936
2017-07-11T10:12:57.016Z,8216
2017-07-11T10:14:05.876Z,8116
2017-07-11T10:15:15.037Z,8176
2017-07-11T10:16:23.906Z,7520
2017-07-11T10:17:32.763Z,6976
2017-07-11T10:18:41.623Z,6404
2017-07-11T10:19:50.484Z,5776
2017-07-11T10:20:59.444Z,7448
2017-07-11T10:22:08.305Z,8884
2017-07-11T10:23:17.166Z,9092
2017-07-11T10:24:26.028Z,8820
2017-07-11T10:25:34.894Z,7944
2017-07-11T10:26:43.901Z,6592
2017-07-11T10:27:52.763Z,6800
2017-07-11T10:29:01.626Z,6580
2017-07-11T10:30:10.484Z,6692
2017-07-11T10:31:19.344Z,6912
2017-07-11T10:32:28.253Z,5932
2017-07-11T10:33:37.115Z,7024
2017-07-11T10:34:45.978Z,7564
2017-07-11T10:35:54.840Z,6516
2017-07-11T10:37:03.700Z,6328
2017-07-11T10:38:12.612Z,7580
2017-07-11T10:39:21.471Z,7016
2017-07-11T10:40:30.334Z,7952
2017-07-11T10:41:39.193Z,8440
2017-07-11T10:42:48.055Z,9456
2017-07-11T10:43:56.918Z,7512
2017-07-11T10:45:05.779Z,7784
2017-07-11T10:46:14.640Z,9424
2017-07-11T10:47:23.501Z,8268
2017-07-11T10:48:32.361Z,10824
2017-07-11T10:49:41.321Z,8988
2017-07-11T10:50:50.183Z,9688
2017-07-11T10:51:59.046Z,7904
2017-07-11T10:53:07.911Z,5256
2017-07-11T10:54:16.767Z,4660
2017-07-11T10:55:25.932Z,5976
2017-07-11T10:56:34.793Z,7848
2017-07-11T10:57:43.654Z,9720
2017-07-11T10:58:52.514Z,7380
2017-07-11T11:00:01.379Z,6208
2017-07-11T11:01:10.439Z,6128
2017-07-11T11:02:19.298Z,5892
2017-07-11T11:03:28.161Z,6332
2017-07-11T11:04:37.029Z,5980
2017-07-11T11:05:45.885Z,6756
2017-07-11T11:06:55.225Z,7476
2017-07-11T11:08:04.087Z,9312
2017-07-11T11:09:12.947Z,6908
2017-07-11T11:10:21.808Z,6616
2017-07-11T11:11:30.668Z,6028
2017-07-11T11:12:39.631Z,8840
2017-07-11T11:13:48.495Z,7808
2017-07-11T11:14:57.355Z,8988
2017-07-11T11:16:06.214Z,8016
2017-07-11T11:17:15.075Z,9424
2017-07-11T11:18:23.985Z,10868
2017-07-11T11:19:32.849Z,8024
2017-07-11T11:20:41.712Z,8988
2017-07-11T11:21:50.573Z,8800
2017-07-11T11:22:59.433Z,9888
2017-07-11T11:24:08.883Z,8624
2017-07-11T11:25:17.747Z,8376
2017-07-11T11:26:26.606Z,5008
2017-07-11T11:27:35.467Z,5328
2017-07-11T11:28:44.329Z,7604
2017-07-11T11:29:53.441Z,12284
2017-07-11T11:31:02.634Z,11092
2017-07-11T11:32:11.498Z,9936
2017-07-11T11:33:20.361Z,9008
2017-07-11T11:34:29.223Z,5820
2017-07-11T11:35:38.291Z,10772
2017-07-11T11:36:47.153Z,7208
2017-07-11T11:37:56.020Z,8232
2017-07-11T11:39:04.885Z,11132
2017-07-11T11:40:13.749Z,10328
2017-07-11T11:41:23.097Z,9264
2017-07-11T11:42:32.293Z,12792
2017-07-11T11:43:41.156Z,13472
2017-07-11T11:44:50.020Z,14300
2017-07-11T11:45:58.881Z,13892
2017-07-11T11:47:07.994Z,14792
2017-07-11T11:48:16.857Z,13500
2017-07-11T11:49:25.720Z,12788
2017-07-11T11:50:34.582Z,12272
2017-07-11T11:51:43.445Z,10420
2017-07-11T11:52:52.466Z,9748
2017-07-11T11:54:01.327Z,12288
2017-07-11T11:55:10.192Z,8532
2017-07-11T11:56:19.058Z,8304
2017-07-11T11:57:27.922Z,9380
2017-07-11T11:58:36.936Z,10332
2017-07-11T11:59:45.797Z,14760
2017-07-11T12:00:54.661Z,53504
2017-07-11T12:02:03.526Z,69216
2017-07-11T12:03:12.387Z,37536
2017-07-11T12:04:21.502Z,65856
2017-07-11T12:05:30.367Z,72512
2017-07-11T12:06:39.240Z,68256
2017-07-11T12:07:48.102Z,57152
2017-07-11T12:08:56.968Z,65152
2017-07-11T12:10:06.419Z,67008
2017-07-11T12:11:15.292Z,35872
2017-07-11T12:12:24.156Z,56736
2017-07-11T12:13:33.349Z,48352
2017-07-11T12:14:42.216Z,45664
2017-07-11T12:15:51.334Z,45600
2017-07-11T12:17:00.201Z,37664
2017-07-11T12:18:09.072Z,39616
2017-07-11T12:19:17.937Z,48416
2017-07-11T12:20:26.805Z,40576
2017-07-11T12:21:35.672Z,59840
2017-07-11T12:22:44.541Z,37824
2017-07-11T12:23:53.408Z,57344
2017-07-11T12:25:02.275Z,72992
2017-07-11T12:26:11.144Z,36768
2017-07-11T12:27:20.349Z,72544
2017-07-11T12:28:29.217Z,72416
2017-07-11T12:29:38.086Z,71712
2017-07-11T12:30:46.958Z,70976
2017-07-11T12:31:55.828Z,65600
2017-07-11T12:33:05.081Z,12732
2017-07-11T12:34:13.950Z,13240
2017-07-11T12:35:22.821Z,62400
2017-07-11T12:36:31.692Z,18272
2017-07-11T12:37:40.561Z,2968
2017-07-11T12:38:49.484Z,1528
2017-07-11T12:39:58.352Z,868
2017-07-11T12:41:07.224Z,1028
2017-07-11T12:42:16.089Z,1448
2017-07-11T12:43:24.954Z,2112
2017-07-11T12:44:33.869Z,3640
2017-07-11T12:45:42.734Z,5724
2017-07-11T12:46:51.601Z,35616
2017-07-11T12:48:00.469Z,14348
2017-07-11T12:49:09.338Z,9616
2017-07-11T12:50:18.303Z,7648
2017-07-11T12:51:27.166Z,12676
2017-07-11T12:52:36.082Z,59424
2017-07-11T12:53:44.945Z,10356
2017-07-11T12:54:54.149Z,14652
2017-07-11T12:56:03.162Z,16500
2017-07-11T12:57:12.026Z,75776
2017-07-11T12:58:20.893Z,47744
2017-07-11T12:59:29.763Z,49792
2017-07-11T13:00:38.627Z,6092
2017-07-11T13:01:47.694Z,4116
2017-07-11T13:02:56.566Z,3476
2017-07-11T13:04:05.431Z,2504
2017-07-11T13:05:14.299Z,2024
2017-07-11T13:06:23.165Z,1760
2017-07-11T13:07:32.174Z,1572
2017-07-11T13:08:41.041Z,1276
2017-07-11T13:09:49.915Z,1064
2017-07-11T13:10:58.778Z,1024
2017-07-11T13:12:07.641Z,1160
2017-07-11T13:13:16.605Z,1404
2017-07-11T13:14:25.469Z,1952
2017-07-11T13:15:34.329Z,2884
2017-07-11T13:16:43.193Z,4116
2017-07-11T13:17:52.055Z,14112
2017-07-11T13:19:01.065Z,45152
2017-07-11T13:20:09.928Z,11324
2017-07-11T13:21:18.788Z,6404
2017-07-11T13:22:27.649Z,4356
2017-07-11T13:23:36.512Z,3304
2017-07-11T13:24:45.472Z,3108
2017-07-11T13:25:54.335Z,2940
2017-07-11T13:27:03.197Z,2732
2017-07-11T13:28:12.059Z,2540
2017-07-11T13:29:21.254Z,2248
2017-07-11T13:30:30.165Z,2072
2017-07-11T13:31:39.361Z,1940
2017-07-11T13:32:48.223Z,1996
2017-07-11T13:33:57.083Z,2184
2017-07-11T13:35:05.944Z,2388
2017-07-11T13:36:15.005Z,2732
2017-07-11T13:37:23.864Z,3212
2017-07-11T13:38:32.725Z,3864
2017-07-11T13:39:41.583Z,4596
2017-07-11T13:40:50.446Z,5536
2017-07-11T13:41:59.470Z,8040
2017-07-11T13:43:08.331Z,22336
2017-07-11T13:44:17.195Z,54880
2017-07-11T13:45:26.057Z,71584
2017-07-11T13:46:34.918Z,72704
2017-07-11T13:47:44.115Z,70688
2017-07-11T13:48:52.980Z,74496
2017-07-11T13:50:01.846Z,77184
2017-07-11T13:51:10.720Z,81504
2017-07-11T13:52:19.597Z,77056
2017-07-11T13:53:28.616Z,55616
2017-07-11T13:54:37.485Z,36960
2017-07-11T13:55:46.365Z,52736
2017-07-11T13:56:55.234Z,26432
2017-07-11T13:58:04.102Z,7180
2017-07-11T13:59:13.175Z,4160
2017-07-11T14:00:22.049Z,2588
2017-07-11T14:01:30.914Z,2044
2017-07-11T14:02:39.781Z,1552
2017-07-11T14:03:48.646Z,1532
2017-07-11T14:04:57.732Z,1216
2017-07-11T14:06:06.647Z,664
2017-07-11T14:07:15.536Z,640
2017-07-11T14:08:24.415Z,988
2017-07-11T14:09:33.302Z,1200
2017-07-11T14:10:42.177Z,1404
2017-07-11T14:11:51.066Z,1552
2017-07-11T14:12:59.939Z,1632
2017-07-11T14:14:08.803Z,1748
2017-07-11T14:15:17.667Z,1832
2017-07-11T14:16:26.833Z,1888
2017-07-11T14:17:35.696Z,1952
2017-07-11T14:18:44.572Z,2092
2017-07-11T14:19:53.460Z,2284
2017-07-11T14:21:02.323Z,2500
2017-07-11T14:22:11.187Z,2780
2017-07-11T14:23:20.062Z,3304
2017-07-11T14:24:28.925Z,4340
2017-07-11T14:25:37.785Z,6568
2017-07-11T14:26:46.667Z,8024
2017-07-11T14:27:55.526Z,10904
2017-07-11T14:29:04.386Z,24256
2017-07-11T14:30:13.273Z,11640
2017-07-11T14:31:22.131Z,10088
2017-07-11T14:32:30.993Z,10852
2017-07-11T14:33:40.002Z,13108
2017-07-11T14:34:48.864Z,16480
2017-07-11T14:35:57.725Z,28064
2017-07-11T14:37:06.588Z,17056
2017-07-11T14:38:15.450Z,39264
2017-07-11T14:39:24.561Z,34112
2017-07-11T14:40:33.431Z,41824
2017-07-11T14:41:42.293Z,42976
2017-07-11T14:42:51.154Z,39776
2017-07-11T14:44:00.021Z,40384
2017-07-11T14:45:09.132Z,40192
2017-07-11T14:46:17.994Z,14612
2017-07-11T14:47:26.857Z,15196
2017-07-11T14:48:35.720Z,31936
2017-07-11T14:49:44.588Z,29696
2017-07-11T14:50:53.709Z,39840
2017-07-11T14:52:02.606Z,22048
2017-07-11T14:53:11.504Z,20640
2017-07-11T14:54:20.410Z,21952
2017-07-11T14:55:29.287Z,14728
2017-07-11T14:56:38.302Z,12336
2017-07-11T14:57:47.173Z,12480
2017-07-11T14:58:56.034Z,13304
2017-07-11T15:00:04.901Z,13796
2017-07-11T15:01:13.768Z,12848
2017-07-11T15:02:22.784Z,12072
2017-07-11T15:03:31.654Z,11100
2017-07-11T15:04:40.513Z,10128
2017-07-11T15:05:49.710Z,9176
2017-07-11T15:06:58.574Z,8156
2017-07-11T15:08:07.488Z,7256
2017-07-11T15:09:16.351Z,6828
2017-07-11T15:10:25.216Z,6716
2017-07-11T15:11:34.080Z,6208
2017-07-11T15:12:42.943Z,5524
2017-07-11T15:13:51.854Z,5120
2017-07-11T15:15:00.716Z,4964
2017-07-11T15:16:09.577Z,4916
2017-07-11T15:17:18.438Z,4712
2017-07-11T15:18:27.301Z,4192
2017-07-11T15:19:36.412Z,3916
2017-07-11T15:20:45.275Z,4040
2017-07-11T15:21:54.139Z,4408
2017-07-11T15:23:03.000Z,4416
2017-07-11T15:24:11.861Z,4024
2017-07-11T15:25:20.774Z,3668
2017-07-11T15:26:29.635Z,3364
2017-07-11T15:27:38.495Z,3412
2017-07-11T15:28:47.355Z,4080
2017-07-11T15:29:56.218Z,5872
2017-07-11T15:31:05.228Z,5468
2017-07-11T15:32:14.090Z,5400
2017-07-11T15:33:22.952Z,5600
2017-07-11T15:34:31.814Z,5564
2017-07-11T15:35:40.673Z,4760
2017-07-11T15:36:49.733Z,3796
2017-07-11T15:37:58.592Z,3312